createdAt,value
2022-09-23T00:15:10.859Z,8.5
2022-09-23T00:25:13.081Z,8.5
2022-09-23T00:45:16.482Z,8.6
2022-09-23T01:05:20.426Z,8.5
2022-09-23T01:25:24.918Z,8.5
2022-09-23T01:35:26.690Z,8.5
2022-09-23T01:45:28.482Z,8.4
2022-09-23T01:55:30.223Z,8.4
2022-09-23T02:05:32.377Z,8.4
2022-09-23T02:15:34.207Z,8.4
2022-09-23T02:25:35.931Z,8.3
2022-09-23T02:35:38.280Z,8.4
2022-09-23T02:45:40.635Z,8.3
2022-09-23T03:05:44.740Z,8.3
2022-09-23T03:25:48.307Z,8.3
2022-09-23T03:35:50.416Z,8.2
2022-09-23T03:45:52.252Z,8.1
2022-09-23T03:55:54.267Z,8
2022-09-23T04:05:56.276Z,7.8
2022-09-23T04:15:58.253Z,7.6
2022-09-23T04:36:03.293Z,7.6
2022-09-23T04:46:05.257Z,7.5
2022-09-23T04:56:07.335Z,7.4
2022-09-23T05:06:09.125Z,7.3
2022-09-23T05:16:11.834Z,7.3
2022-09-23T05:26:14.122Z,7.3
2022-09-23T05:36:15.861Z,7.4
2022-09-23T05:46:17.778Z,7.4
2022-09-23T06:16:23.869Z,7.6
2022-09-23T06:26:25.985Z,7.8
2022-09-23T06:36:37.424Z,8.1
2022-09-23T06:46:30.835Z,8.4
2022-09-23T06:56:37.918Z,8.9
2022-09-23T07:06:35.410Z,9.5
2022-09-23T07:16:37.126Z,10.2
2022-09-23T07:26:42.308Z,10.9
2022-09-23T07:36:41.242Z,11.7
2022-09-23T07:46:43.415Z,12.2
2022-09-23T07:56:45.792Z,12.6
2022-09-23T08:06:47.771Z,13.2
2022-09-23T08:16:50.235Z,13.6
2022-09-23T08:26:52.102Z,13.9
2022-09-23T08:36:54.337Z,14.2
2022-09-23T08:46:56.221Z,14.3
2022-09-23T08:56:58.401Z,14.6
2022-09-23T09:07:12.647Z,14.8
2022-09-23T09:17:02.318Z,15
2022-09-23T09:27:04.194Z,15.3
2022-09-23T09:47:08.330Z,15.8
2022-09-23T09:57:10.380Z,16.1
2022-09-23T10:07:12.463Z,16.1
2022-09-23T10:17:14.836Z,16.5
2022-09-23T10:27:17.375Z,16.5
2022-09-23T10:37:19.808Z,16.4
2022-09-23T10:47:22.095Z,16.6
2022-09-23T10:57:24.401Z,16.6
2022-09-23T11:07:27.093Z,16.9
2022-09-23T11:17:29.642Z,17
2022-09-23T11:27:31.898Z,17
2022-09-23T11:37:34.478Z,17.3
2022-09-23T11:47:39.669Z,17.6
2022-09-23T11:57:46.537Z,17.8
2022-09-23T12:17:42.371Z,18.2
2022-09-23T12:37:46.437Z,18.2
2022-09-23T12:47:48.936Z,18.1
2022-09-23T12:57:50.843Z,18.3
2022-09-23T13:07:53.080Z,18.2
2022-09-23T13:17:55.180Z,18.4
2022-09-23T13:27:57.200Z,18.2
2022-09-23T13:37:59.378Z,18.4
2022-09-23T13:48:01.907Z,18.2
2022-09-23T13:58:04.161Z,18.3
2022-09-23T14:08:06.330Z,18.4
2022-09-23T14:18:08.908Z,18.3
2022-09-23T14:28:10.833Z,18.4
2022-09-23T14:38:12.980Z,18.3
2022-09-23T14:48:14.872Z,18.2
2022-09-23T14:58:17.301Z,18.1
2022-09-23T15:08:19.322Z,17.8
2022-09-23T15:18:21.715Z,17.8
2022-09-23T15:28:23.919Z,17.6
2022-09-23T15:38:26.439Z,17.5
2022-09-23T15:48:28.948Z,17.4
2022-09-23T15:58:31.422Z,17.4
2022-09-23T16:08:34.029Z,17.3
2022-09-23T16:18:36.139Z,17.2
2022-09-23T16:28:38.083Z,17
2022-09-23T16:38:40.597Z,16.9
2022-09-23T16:48:42.514Z,16.8
2022-09-23T16:58:44.945Z,16.7
2022-09-23T17:08:46.689Z,16.5
2022-09-23T17:18:48.587Z,16.2
2022-09-23T17:28:50.501Z,15.9
2022-09-23T17:38:53.008Z,15.6
2022-09-23T17:48:54.707Z,15.1
2022-09-23T17:58:57.255Z,14.7
2022-09-23T18:08:59.273Z,14.4
2022-09-23T18:19:02.049Z,14.2
2022-09-23T18:29:04.421Z,14.2
2022-09-23T18:39:06.458Z,13.9
2022-09-23T18:49:08.160Z,13.7
2022-09-23T18:59:10.374Z,13.7
2022-09-23T19:09:12.867Z,13.7
2022-09-23T19:29:17.067Z,13.9
2022-09-23T20:09:25.627Z,13.6
2022-09-23T20:19:27.663Z,13.6
2022-09-23T20:29:29.613Z,13.6
2022-09-23T20:49:34.098Z,13.3
2022-09-23T20:59:36.288Z,13
2022-09-23T21:09:38.470Z,13.1
2022-09-23T21:19:40.575Z,13
2022-09-23T21:29:42.580Z,13
2022-09-23T21:39:44.818Z,13
2022-09-23T21:49:50.734Z,13.1
2022-09-23T21:59:49.698Z,12.9
2022-09-23T22:09:51.903Z,12.8
2022-09-23T22:19:54.180Z,12.7
2022-09-23T22:29:56.677Z,12.6
2022-09-23T22:39:58.880Z,12.7
2022-09-23T22:50:00.571Z,12.6
2022-09-23T23:00:02.347Z,12.7
2022-09-23T23:10:04.268Z,12.7
2022-09-23T23:20:06.325Z,12.9
2022-09-23T23:30:08.093Z,12.7
2022-09-23T23:40:10.457Z,12.8
2022-09-23T23:50:12.871Z,13
